createdAt,value
2023-03-10T00:00:43.667Z,61
2023-03-10T00:01:45.023Z,62
2023-03-10T00:02:46.356Z,62
2023-03-10T00:03:47.729Z,62
2023-03-10T00:04:49.130Z,62
2023-03-10T00:05:50.558Z,62
2023-03-10T00:06:51.925Z,62
2023-03-10T00:07:53.309Z,63
2023-03-10T00:09:52.873Z,63
2023-03-10T00:10:54.240Z,63
2023-03-10T00:11:55.593Z,64
2023-03-10T00:12:56.978Z,64
2023-03-10T00:14:03.603Z,64
2023-03-10T00:15:04.896Z,64
2023-03-10T00:16:06.344Z,64
2023-03-10T00:17:07.672Z,64
2023-03-10T00:18:09.044Z,64
2023-03-10T00:19:10.387Z,64
2023-03-10T00:20:11.758Z,64
2023-03-10T00:21:13.124Z,64
2023-03-10T00:22:23.422Z,64
2023-03-10T00:23:24.828Z,64
2023-03-10T00:24:26.157Z,64
2023-03-10T00:25:27.546Z,65
2023-03-10T00:26:28.933Z,65
2023-03-10T00:27:30.340Z,65
2023-03-10T00:28:31.667Z,65
2023-03-10T00:29:33.037Z,65
2023-03-10T00:30:34.402Z,65
2023-03-10T00:31:35.831Z,64
2023-03-10T00:32:37.262Z,64
2023-03-10T00:33:38.667Z,64
2023-03-10T00:34:40.021Z,64
2023-03-10T00:36:33.607Z,63
2023-03-10T00:37:34.967Z,63
2023-03-10T00:38:36.370Z,63
2023-03-10T00:39:37.729Z,63
2023-03-10T00:40:39.113Z,63
2023-03-10T00:41:40.486Z,63
2023-03-10T00:42:41.858Z,63
2023-03-10T00:43:43.246Z,63
2023-03-10T00:44:44.599Z,63
2023-03-10T00:45:45.934Z,64
2023-03-10T00:46:47.451Z,64
2023-03-10T00:47:48.879Z,64
2023-03-10T00:48:50.269Z,64
2023-03-10T00:49:51.615Z,64
2023-03-10T00:50:52.973Z,64
2023-03-10T00:51:54.303Z,63
2023-03-10T00:52:55.756Z,63
2023-03-10T00:53:57.172Z,63
2023-03-10T00:54:58.536Z,63
2023-03-10T00:55:59.910Z,63
2023-03-10T00:57:01.292Z,63
2023-03-10T00:58:02.630Z,63
2023-03-10T00:59:03.979Z,63
2023-03-10T01:00:05.361Z,63
2023-03-10T01:02:23.019Z,63
2023-03-10T01:03:24.388Z,63
2023-03-10T01:05:43.144Z,63
2023-03-10T01:06:44.591Z,63
2023-03-10T01:07:45.966Z,63
2023-03-10T01:08:47.335Z,63
2023-03-10T01:09:53.016Z,63
2023-03-10T01:11:33.190Z,63
2023-03-10T01:12:34.527Z,62
2023-03-10T01:13:35.886Z,62
2023-03-10T01:14:37.261Z,62
2023-03-10T01:15:38.689Z,62
2023-03-10T01:16:40.109Z,62
2023-03-10T01:18:13.627Z,63
2023-03-10T01:19:15.205Z,63
2023-03-10T01:20:16.603Z,63
2023-03-10T01:21:17.991Z,63
2023-03-10T01:22:19.351Z,63
2023-03-10T01:23:20.749Z,63
2023-03-10T01:24:53.328Z,63
2023-03-10T01:26:33.188Z,63
2023-03-10T01:27:34.542Z,63
2023-03-10T01:28:35.888Z,63
2023-03-10T01:29:37.270Z,62
2023-03-10T01:30:43.516Z,62
2023-03-10T01:33:13.059Z,62
2023-03-10T01:34:14.443Z,62
2023-03-10T01:35:43.034Z,63
2023-03-10T01:36:44.431Z,63
2023-03-10T01:38:12.979Z,63
2023-03-10T01:39:14.335Z,63
2023-03-10T01:40:15.694Z,63
2023-03-10T01:41:17.113Z,63
2023-03-10T01:42:18.516Z,63
2023-03-10T01:43:19.877Z,63
2023-03-10T01:44:21.269Z,63
2023-03-10T01:45:22.593Z,64
2023-03-10T01:46:24.035Z,64
2023-03-10T01:47:25.481Z,63
2023-03-10T01:48:26.842Z,63
2023-03-10T01:49:28.224Z,63
2023-03-10T01:50:29.595Z,63
2023-03-10T01:51:30.952Z,63
2023-03-10T01:52:32.346Z,63
2023-03-10T01:53:33.713Z,63
2023-03-10T01:54:35.059Z,63
2023-03-10T01:55:36.378Z,63
2023-03-10T01:56:37.889Z,62
2023-03-10T01:58:13.460Z,63
2023-03-10T01:59:14.868Z,63
2023-03-10T02:00:43.193Z,63
2023-03-10T02:01:44.682Z,64
2023-03-10T02:02:46.083Z,63
2023-03-10T02:04:03.247Z,63
2023-03-10T02:05:42.977Z,63
2023-03-10T02:06:44.382Z,63
2023-03-10T02:07:45.728Z,63
2023-03-10T02:09:03.162Z,62
2023-03-10T02:10:04.561Z,63
2023-03-10T02:11:05.911Z,63
2023-03-10T02:12:07.381Z,63
2023-03-10T02:13:12.984Z,63
2023-03-10T02:14:53.491Z,63
2023-03-10T02:17:23.514Z,63
2023-03-10T02:18:24.962Z,64
2023-03-10T02:19:26.355Z,64
2023-03-10T02:20:43.542Z,63
2023-03-10T02:23:13.012Z,64
2023-03-10T02:24:14.384Z,64
2023-03-10T02:25:15.754Z,64
2023-03-10T02:26:17.117Z,64
2023-03-10T02:27:18.452Z,64
2023-03-10T02:28:19.834Z,63
2023-03-10T02:29:21.210Z,64
2023-03-10T02:30:42.963Z,64
2023-03-10T02:31:44.401Z,64
2023-03-10T02:32:45.918Z,64
2023-03-10T02:33:47.291Z,64
2023-03-10T02:34:48.623Z,64
2023-03-10T02:35:49.996Z,64
2023-03-10T02:36:51.405Z,65
2023-03-10T02:37:52.773Z,65
2023-03-10T02:38:54.145Z,65
2023-03-10T02:39:55.532Z,65
2023-03-10T02:40:56.910Z,65
2023-03-10T02:41:58.299Z,65
2023-03-10T02:43:12.978Z,65
2023-03-10T02:44:14.418Z,65
2023-03-10T02:45:15.794Z,65
2023-03-10T02:46:17.252Z,65
2023-03-10T02:47:22.943Z,65
2023-03-10T02:48:26.779Z,65
2023-03-10T02:49:29.493Z,65
2023-03-10T02:50:30.836Z,65
2023-03-10T02:51:32.965Z,65
2023-03-10T02:52:34.320Z,65
2023-03-10T02:54:02.772Z,65
2023-03-10T02:55:04.132Z,64
2023-03-10T02:56:05.510Z,64
2023-03-10T02:57:06.878Z,65
2023-03-10T02:58:08.245Z,65
2023-03-10T02:59:09.614Z,65
2023-03-10T03:00:43.000Z,65
2023-03-10T03:02:23.271Z,65
2023-03-10T03:03:24.620Z,64
2023-03-10T03:04:25.981Z,64
2023-03-10T03:05:27.355Z,64
2023-03-10T03:06:33.148Z,64
2023-03-10T03:07:34.525Z,64
2023-03-10T03:08:35.920Z,64
2023-03-10T03:09:37.276Z,64
2023-03-10T03:10:38.659Z,64
2023-03-10T03:11:40.062Z,64
2023-03-10T03:12:41.460Z,64
2023-03-10T03:13:42.832Z,64
2023-03-10T03:14:44.221Z,64
2023-03-10T03:15:45.613Z,64
2023-03-10T03:16:47.146Z,64
2023-03-10T03:17:48.642Z,64
2023-03-10T03:18:49.979Z,64
2023-03-10T03:19:51.366Z,63
2023-03-10T03:20:52.731Z,63
2023-03-10T03:21:54.076Z,63
2023-03-10T03:24:03.394Z,64
2023-03-10T03:25:04.750Z,64
2023-03-10T03:26:06.116Z,64
2023-03-10T03:27:07.459Z,64
2023-03-10T03:28:08.795Z,64
2023-03-10T03:29:10.144Z,64
2023-03-10T03:30:11.491Z,64
2023-03-10T03:31:12.829Z,64
2023-03-10T03:32:14.243Z,63
2023-03-10T03:33:15.679Z,63
2023-03-10T03:34:17.060Z,63
2023-03-10T03:35:18.416Z,63
2023-03-10T03:36:19.793Z,63
2023-03-10T03:37:21.143Z,63
2023-03-10T03:38:22.492Z,63
2023-03-10T03:39:23.851Z,63
2023-03-10T03:40:25.214Z,63
2023-03-10T03:41:26.552Z,63
2023-03-10T03:42:27.894Z,63
2023-03-10T03:43:29.210Z,63
2023-03-10T03:44:52.957Z,63
2023-03-10T03:45:54.348Z,63
2023-03-10T03:46:55.705Z,62
2023-03-10T03:47:57.101Z,62
2023-03-10T03:48:58.487Z,62
2023-03-10T03:49:59.846Z,62
2023-03-10T03:51:01.225Z,62
2023-03-10T03:52:02.566Z,62
2023-03-10T03:54:02.969Z,62
2023-03-10T03:55:42.932Z,62
2023-03-10T03:56:44.277Z,62
2023-03-10T03:58:12.941Z,62
2023-03-10T03:59:14.303Z,62
2023-03-10T04:00:15.655Z,62
2023-03-10T04:01:17.018Z,62
2023-03-10T04:02:18.440Z,62
2023-03-10T04:03:19.875Z,62
2023-03-10T04:04:21.228Z,62
2023-03-10T04:05:22.573Z,62
2023-03-10T04:06:23.950Z,62
2023-03-10T04:07:25.297Z,62
2023-03-10T04:08:26.652Z,62
2023-03-10T04:09:28.084Z,62
2023-03-10T04:10:43.062Z,62
2023-03-10T04:11:44.386Z,62
2023-03-10T04:12:45.770Z,62
2023-03-10T04:14:03.063Z,62
2023-03-10T04:15:04.405Z,62
2023-03-10T04:16:33.058Z,62
2023-03-10T04:18:12.903Z,62
2023-03-10T04:19:14.236Z,62
2023-03-10T04:20:43.096Z,62
2023-03-10T04:22:23.372Z,62
2023-03-10T04:23:24.738Z,62
2023-03-10T04:24:26.097Z,62
2023-03-10T04:25:27.463Z,62
2023-03-10T04:26:28.847Z,62
2023-03-10T04:27:30.240Z,62
2023-03-10T04:29:03.190Z,62
2023-03-10T04:30:04.564Z,62
2023-03-10T04:31:05.988Z,62
2023-03-10T04:32:07.415Z,62
2023-03-10T04:33:08.772Z,62
2023-03-10T04:34:10.116Z,62
2023-03-10T04:35:11.455Z,61
2023-03-10T04:36:33.020Z,62
2023-03-10T04:37:34.360Z,62
2023-03-10T04:39:02.913Z,62
2023-03-10T04:40:04.275Z,62
2023-03-10T04:41:05.614Z,62
2023-03-10T04:42:06.984Z,62
2023-03-10T04:43:13.229Z,62
2023-03-10T04:44:28.368Z,62
2023-03-10T04:45:31.536Z,62
2023-03-10T04:46:33.034Z,63
2023-03-10T04:47:34.429Z,63
2023-03-10T04:49:03.321Z,63
2023-03-10T04:50:04.718Z,63
2023-03-10T04:51:32.937Z,63
2023-03-10T04:52:34.307Z,63
2023-03-10T04:53:35.678Z,63
2023-03-10T04:54:37.085Z,63
2023-03-10T04:55:38.434Z,63
2023-03-10T04:56:39.783Z,63
2023-03-10T04:57:41.135Z,63
2023-03-10T04:59:53.031Z,63
2023-03-10T05:01:02.663Z,63
2023-03-10T05:02:04.687Z,63
2023-03-10T05:03:12.919Z,63
2023-03-10T05:04:14.413Z,63
2023-03-10T05:05:43.421Z,63
2023-03-10T05:06:44.785Z,63
2023-03-10T05:07:46.381Z,63
2023-03-10T05:09:02.904Z,63
2023-03-10T05:10:43.062Z,63
2023-03-10T05:12:23.281Z,63
2023-03-10T05:13:24.665Z,63
2023-03-10T05:14:26.033Z,63
2023-03-10T05:15:27.389Z,63
2023-03-10T05:16:28.841Z,63
2023-03-10T05:17:30.348Z,63
2023-03-10T05:18:31.702Z,63
2023-03-10T05:19:33.102Z,63
2023-03-10T05:20:34.493Z,63
2023-03-10T05:21:35.899Z,63
2023-03-10T05:22:37.323Z,63
2023-03-10T05:23:38.681Z,63
2023-03-10T05:25:42.942Z,63
2023-03-10T05:26:44.322Z,63
2023-03-10T05:27:45.673Z,63
2023-03-10T05:28:47.037Z,63
2023-03-10T05:29:48.392Z,63
2023-03-10T05:30:49.777Z,63
2023-03-10T05:31:51.126Z,63
2023-03-10T05:32:52.595Z,63
2023-03-10T05:33:54.026Z,63
2023-03-10T05:34:55.408Z,63
2023-03-10T05:35:56.840Z,63
2023-03-10T05:36:58.226Z,63
2023-03-10T05:37:59.675Z,63
2023-03-10T05:39:01.065Z,63
2023-03-10T05:40:02.421Z,63
2023-03-10T05:41:03.772Z,63
2023-03-10T05:42:22.900Z,63
2023-03-10T05:43:24.258Z,63
2023-03-10T05:44:53.071Z,63
2023-03-10T05:45:54.427Z,63
2023-03-10T05:46:55.819Z,63
2023-03-10T05:47:57.168Z,63
2023-03-10T05:48:58.568Z,63
2023-03-10T05:49:59.949Z,63
2023-03-10T05:51:01.339Z,63
2023-03-10T05:52:02.701Z,63
2023-03-10T05:53:04.079Z,63
2023-03-10T05:54:05.462Z,63
2023-03-10T05:55:06.823Z,62
2023-03-10T05:56:08.337Z,63
2023-03-10T05:57:10.903Z,63
2023-03-10T05:58:13.079Z,63
2023-03-10T05:59:14.430Z,63
2023-03-10T06:00:15.806Z,63
2023-03-10T06:01:17.161Z,63
2023-03-10T06:03:13.101Z,63
2023-03-10T06:04:14.565Z,63
2023-03-10T06:05:16.069Z,63
2023-03-10T06:06:17.425Z,63
2023-03-10T06:07:18.762Z,63
2023-03-10T06:08:20.175Z,63
2023-03-10T06:09:21.569Z,63
2023-03-10T06:10:22.944Z,63
2023-03-10T06:11:24.328Z,63
2023-03-10T06:12:25.718Z,63
2023-03-10T06:13:27.086Z,64
2023-03-10T06:14:28.522Z,64
2023-03-10T06:15:29.891Z,64
2023-03-10T06:17:23.346Z,64
2023-03-10T06:18:24.719Z,64
2023-03-10T06:19:26.102Z,64
2023-03-10T06:20:27.529Z,64
2023-03-10T06:21:28.914Z,64
2023-03-10T06:22:31.405Z,64
2023-03-10T06:23:32.937Z,65
2023-03-10T06:24:34.313Z,64
2023-03-10T06:25:35.723Z,64
2023-03-10T06:26:37.102Z,64
2023-03-10T06:27:38.498Z,64
2023-03-10T06:28:39.884Z,64
2023-03-10T06:29:41.273Z,64
2023-03-10T06:30:43.058Z,64
2023-03-10T06:31:44.491Z,64
2023-03-10T06:33:13.465Z,64
2023-03-10T06:34:14.823Z,64
2023-03-10T06:35:16.192Z,64
2023-03-10T06:36:17.748Z,64
2023-03-10T06:37:23.467Z,64
2023-03-10T06:39:02.900Z,64
2023-03-10T06:40:04.303Z,64
2023-03-10T06:41:05.675Z,64
2023-03-10T06:42:07.079Z,64
2023-03-10T06:43:08.431Z,63
2023-03-10T06:44:09.820Z,63
2023-03-10T06:45:11.181Z,63
2023-03-10T06:46:12.667Z,63
2023-03-10T06:47:14.393Z,63
2023-03-10T06:48:15.750Z,62
2023-03-10T06:49:17.134Z,62
2023-03-10T06:50:18.514Z,62
2023-03-10T06:51:19.902Z,62
2023-03-10T06:52:21.319Z,62
2023-03-10T06:53:22.708Z,62
2023-03-10T06:54:24.100Z,62
2023-03-10T06:55:25.511Z,62
2023-03-10T06:56:26.904Z,62
2023-03-10T06:57:28.321Z,62
2023-03-10T06:58:29.686Z,62
2023-03-10T06:59:53.223Z,62
2023-03-10T07:00:54.669Z,62
2023-03-10T07:01:56.063Z,62
2023-03-10T07:03:13.030Z,62
2023-03-10T07:04:14.532Z,62
2023-03-10T07:05:16.014Z,62
2023-03-10T07:06:17.406Z,61
2023-03-10T07:07:18.804Z,61
2023-03-10T07:08:20.199Z,61
2023-03-10T07:09:21.572Z,61
2023-03-10T07:10:23.080Z,61
2023-03-10T07:11:32.897Z,61
2023-03-10T07:12:34.245Z,61
2023-03-10T07:14:02.916Z,61
2023-03-10T07:15:04.258Z,61
2023-03-10T07:16:33.281Z,61
2023-03-10T07:17:34.664Z,61
2023-03-10T07:18:36.015Z,61
2023-03-10T07:19:37.366Z,61
2023-03-10T07:20:38.710Z,61
2023-03-10T07:21:40.084Z,61
2023-03-10T07:22:41.456Z,61
2023-03-10T07:24:53.090Z,62
2023-03-10T07:26:32.910Z,61
2023-03-10T07:28:13.073Z,62
2023-03-10T07:29:14.700Z,62
2023-03-10T07:30:16.052Z,62
2023-03-10T07:31:17.500Z,61
2023-03-10T07:32:18.898Z,61
2023-03-10T07:33:20.299Z,62
2023-03-10T07:34:21.673Z,61
2023-03-10T07:35:23.074Z,62
2023-03-10T07:36:24.563Z,61
2023-03-10T07:37:25.963Z,61
2023-03-10T07:38:27.307Z,61
2023-03-10T07:39:53.339Z,61
2023-03-10T07:40:54.732Z,61
2023-03-10T07:42:22.880Z,61
2023-03-10T07:43:24.296Z,61
2023-03-10T07:44:26.092Z,61
2023-03-10T07:45:27.475Z,61
2023-03-10T07:51:32.914Z,61
2023-03-10T07:52:34.274Z,61
2023-03-10T07:53:35.652Z,61
2023-03-10T07:54:36.989Z,61
2023-03-10T07:55:38.343Z,61
2023-03-10T07:56:39.682Z,61
2023-03-10T07:57:41.029Z,61
2023-03-10T07:58:42.431Z,61
2023-03-10T07:59:43.787Z,61
2023-03-10T08:00:45.131Z,60
2023-03-10T08:02:22.755Z,60
2023-03-10T08:03:24.156Z,60
2023-03-10T08:04:25.725Z,60
2023-03-10T08:05:43.586Z,60
2023-03-10T08:06:44.934Z,60
2023-03-10T08:07:46.284Z,60
2023-03-10T08:08:47.653Z,60
2023-03-10T08:09:49.027Z,60
2023-03-10T08:10:50.387Z,60
2023-03-10T08:14:03.278Z,60
2023-03-10T08:15:04.647Z,60
2023-03-10T08:16:06.059Z,60
2023-03-10T08:17:23.167Z,60
2023-03-10T08:18:24.553Z,60
2023-03-10T08:19:25.960Z,60
2023-03-10T08:20:27.552Z,60
2023-03-10T08:21:29.001Z,60
2023-03-10T08:22:30.388Z,60
2023-03-10T08:23:31.746Z,60
2023-03-10T08:24:33.127Z,60
2023-03-10T08:25:34.515Z,60
2023-03-10T08:26:35.876Z,60
2023-03-10T08:27:37.794Z,60
2023-03-10T08:29:03.308Z,60
2023-03-10T08:30:04.747Z,60
2023-03-10T08:31:06.261Z,60
2023-03-10T08:32:07.702Z,59
2023-03-10T08:33:09.083Z,59
2023-03-10T08:34:10.465Z,59
2023-03-10T08:35:11.846Z,59
2023-03-10T08:36:13.234Z,59
2023-03-10T08:37:14.643Z,59
2023-03-10T08:38:16.031Z,59
2023-03-10T08:39:53.321Z,59
2023-03-10T08:40:54.732Z,59
2023-03-10T08:41:56.138Z,59
2023-03-10T08:42:57.523Z,58
2023-03-10T08:43:58.903Z,58
2023-03-10T08:45:00.331Z,58
2023-03-10T08:46:32.894Z,58
2023-03-10T08:47:34.289Z,58
2023-03-10T08:48:35.690Z,58
2023-03-10T08:49:37.052Z,57
2023-03-10T08:50:43.027Z,57
2023-03-10T08:51:44.397Z,57
2023-03-10T08:52:45.754Z,57
2023-03-10T08:53:47.183Z,57
2023-03-10T08:54:48.569Z,57
2023-03-10T08:55:49.927Z,57
2023-03-10T08:56:51.373Z,57
2023-03-10T08:57:52.779Z,57
2023-03-10T08:58:54.152Z,57
2023-03-10T08:59:55.539Z,57
2023-03-10T09:00:56.927Z,57
2023-03-10T09:01:58.481Z,57
2023-03-10T09:02:59.881Z,57
2023-03-10T09:04:01.287Z,57
2023-03-10T09:05:02.654Z,57
2023-03-10T09:06:04.034Z,57
2023-03-10T09:07:05.402Z,57
2023-03-10T09:08:06.765Z,57
2023-03-10T09:09:08.152Z,57
2023-03-10T09:10:09.544Z,57
2023-03-10T09:11:10.902Z,56
2023-03-10T09:12:12.249Z,56
2023-03-10T09:13:14.550Z,56
2023-03-10T09:14:16.918Z,56
2023-03-10T09:15:43.127Z,56
2023-03-10T09:16:44.607Z,56
2023-03-10T09:17:46.057Z,56
2023-03-10T09:18:47.416Z,56
2023-03-10T09:19:48.793Z,56
2023-03-10T09:20:50.145Z,55
2023-03-10T09:21:51.516Z,56
2023-03-10T09:22:52.888Z,56
2023-03-10T09:23:54.244Z,55
2023-03-10T09:24:55.629Z,55
2023-03-10T09:25:56.989Z,55
2023-03-10T09:26:58.334Z,55
2023-03-10T09:27:59.745Z,55
2023-03-10T09:29:01.092Z,55
2023-03-10T09:30:02.412Z,55
2023-03-10T09:31:03.772Z,55
2023-03-10T09:32:22.989Z,55
2023-03-10T09:34:02.842Z,55
2023-03-10T09:35:04.588Z,55
2023-03-10T09:36:07.289Z,55
2023-03-10T09:37:09.096Z,55
2023-03-10T09:38:10.440Z,55
2023-03-10T09:39:12.001Z,55
2023-03-10T09:40:13.380Z,54
2023-03-10T09:41:14.739Z,54
2023-03-10T09:42:16.805Z,55
2023-03-10T09:43:23.045Z,55
2023-03-10T09:44:24.377Z,55
2023-03-10T09:45:25.757Z,55
2023-03-10T09:46:27.139Z,55
2023-03-10T09:47:28.494Z,55
2023-03-10T09:49:53.375Z,55
2023-03-10T09:50:54.728Z,55
2023-03-10T09:51:56.228Z,55
2023-03-10T09:52:57.823Z,55
2023-03-10T09:54:03.133Z,54
2023-03-10T09:55:04.850Z,54
2023-03-10T09:56:06.229Z,54
2023-03-10T09:57:07.567Z,54
2023-03-10T09:58:08.926Z,54
2023-03-10T09:59:10.337Z,54
2023-03-10T10:00:11.736Z,54
2023-03-10T10:01:13.100Z,54
2023-03-10T10:02:14.449Z,54
2023-03-10T10:03:15.882Z,54
2023-03-10T10:04:17.412Z,54
2023-03-10T10:05:18.951Z,54
2023-03-10T10:06:20.401Z,54
2023-03-10T10:07:21.709Z,54
2023-03-10T10:08:23.071Z,54
2023-03-10T10:09:24.443Z,54
2023-03-10T10:10:43.141Z,54
2023-03-10T10:11:44.479Z,54
2023-03-10T10:12:45.835Z,54
2023-03-10T10:13:47.218Z,54
2023-03-10T10:14:57.102Z,54
2023-03-10T10:16:16.241Z,54
2023-03-10T10:17:19.918Z,54
2023-03-10T10:18:23.338Z,54
2023-03-10T10:19:26.309Z,53
2023-03-10T10:20:28.295Z,53
2023-03-10T10:21:36.863Z,53
2023-03-10T10:22:43.325Z,53
2023-03-10T10:23:44.662Z,53
2023-03-10T10:24:46.042Z,53
2023-03-10T10:25:49.372Z,53
2023-03-10T10:26:51.644Z,52
2023-03-10T10:27:52.996Z,52
2023-03-10T10:28:54.358Z,52
2023-03-10T10:29:55.727Z,52
2023-03-10T10:30:57.216Z,52
2023-03-10T10:31:58.638Z,52
2023-03-10T10:32:59.985Z,52
2023-03-10T10:34:01.328Z,52
2023-03-10T10:35:02.676Z,52
2023-03-10T10:36:04.142Z,52
2023-03-10T10:37:05.532Z,52
2023-03-10T10:38:06.914Z,52
2023-03-10T10:39:08.302Z,52
2023-03-10T10:40:09.675Z,52
2023-03-10T10:41:11.067Z,52
2023-03-10T10:42:12.477Z,52
2023-03-10T10:43:13.847Z,52
2023-03-10T10:44:15.194Z,53
2023-03-10T10:45:16.551Z,53
2023-03-10T10:46:18.028Z,53
2023-03-10T10:47:19.421Z,53
2023-03-10T10:48:20.822Z,53
2023-03-10T10:49:22.196Z,53
2023-03-10T10:50:23.639Z,53
2023-03-10T10:51:32.788Z,53
2023-03-10T10:52:34.146Z,53
2023-03-10T10:53:35.534Z,53
2023-03-10T10:54:52.777Z,53
2023-03-10T10:55:54.170Z,53
2023-03-10T10:57:22.789Z,53
2023-03-10T10:58:24.127Z,53
2023-03-10T10:59:25.485Z,53
2023-03-10T11:00:42.927Z,52
2023-03-10T11:01:44.338Z,52
2023-03-10T11:02:45.782Z,52
2023-03-10T11:04:03.288Z,52
2023-03-10T11:05:04.777Z,52
2023-03-10T11:06:06.122Z,52
2023-03-10T11:07:07.554Z,52
2023-03-10T11:08:08.913Z,52
2023-03-10T11:09:12.077Z,52
2023-03-10T11:10:13.761Z,52
2023-03-10T11:11:15.157Z,52
2023-03-10T11:12:16.534Z,52
2023-03-10T11:13:17.924Z,52
2023-03-10T11:14:19.289Z,52
2023-03-10T11:15:20.670Z,52
2023-03-10T11:16:22.070Z,51
2023-03-10T11:17:23.468Z,51
2023-03-10T11:18:24.858Z,51
2023-03-10T11:19:26.424Z,50
2023-03-10T11:20:27.870Z,50
2023-03-10T11:21:29.228Z,50
2023-03-10T11:22:30.717Z,50
2023-03-10T11:23:32.080Z,49
2023-03-10T11:24:33.537Z,49
2023-03-10T11:25:34.913Z,49
2023-03-10T11:26:36.312Z,49
2023-03-10T11:27:37.670Z,49
2023-03-10T11:28:39.006Z,49
2023-03-10T11:29:40.388Z,48
2023-03-10T11:30:42.786Z,48
2023-03-10T11:31:44.126Z,47
2023-03-10T11:32:45.528Z,46
2023-03-10T11:33:46.913Z,46
2023-03-10T11:34:48.299Z,46
2023-03-10T11:35:49.728Z,45
2023-03-10T11:36:56.128Z,45
2023-03-10T11:37:57.820Z,45
2023-03-10T11:38:59.150Z,45
2023-03-10T11:40:00.505Z,44
2023-03-10T11:41:32.893Z,44
2023-03-10T11:42:34.263Z,44
2023-03-10T11:43:35.627Z,44
2023-03-10T11:44:37.015Z,44
2023-03-10T11:45:38.408Z,44
2023-03-10T11:46:39.896Z,43
2023-03-10T11:47:42.018Z,43
2023-03-10T11:48:43.600Z,43
2023-03-10T11:49:44.949Z,43
2023-03-10T11:50:46.348Z,43
2023-03-10T11:51:47.705Z,43
2023-03-10T11:52:49.066Z,43
2023-03-10T11:53:50.431Z,43
2023-03-10T11:54:52.748Z,43
2023-03-10T11:55:54.098Z,43
2023-03-10T11:56:55.411Z,42
2023-03-10T11:57:56.736Z,42
2023-03-10T11:58:58.073Z,42
2023-03-10T11:59:59.428Z,42
2023-03-10T12:01:00.772Z,42
2023-03-10T12:02:02.118Z,42
2023-03-10T12:03:03.504Z,42
2023-03-10T12:04:04.854Z,41
2023-03-10T12:05:06.234Z,41
2023-03-10T12:06:07.615Z,42
2023-03-10T12:07:08.975Z,42
2023-03-10T12:08:10.324Z,42
2023-03-10T12:09:11.708Z,42
2023-03-10T12:10:13.057Z,41
2023-03-10T12:11:14.460Z,40
2023-03-10T12:12:15.806Z,40
2023-03-10T12:13:17.228Z,40
2023-03-10T12:14:18.587Z,40
2023-03-10T12:15:20.048Z,40
2023-03-10T12:16:21.565Z,40
2023-03-10T12:17:22.926Z,41
2023-03-10T12:18:26.737Z,41
2023-03-10T12:19:28.232Z,41
2023-03-10T12:20:29.615Z,41
2023-03-10T12:21:30.976Z,41
2023-03-10T12:22:32.395Z,40
2023-03-10T12:23:33.786Z,40
2023-03-10T12:24:35.194Z,40
2023-03-10T12:25:36.572Z,40
2023-03-10T12:26:37.960Z,40
2023-03-10T12:27:39.384Z,39
2023-03-10T12:28:40.783Z,39
2023-03-10T12:29:42.195Z,39
2023-03-10T12:30:43.555Z,39
2023-03-10T12:31:45.026Z,38
2023-03-10T12:32:46.498Z,38
2023-03-10T12:33:47.887Z,38
2023-03-10T12:34:49.245Z,38
2023-03-10T12:35:50.710Z,38
2023-03-10T12:36:52.222Z,38
2023-03-10T12:37:53.638Z,38
2023-03-10T12:38:55.042Z,38
2023-03-10T12:39:56.451Z,38
2023-03-10T12:40:57.853Z,38
2023-03-10T12:41:59.253Z,38
2023-03-10T12:43:00.638Z,38
2023-03-10T12:44:02.000Z,37
2023-03-10T12:46:32.814Z,37
2023-03-10T12:47:34.186Z,37
2023-03-10T12:48:35.536Z,37
2023-03-10T12:49:36.909Z,37
2023-03-10T12:50:38.309Z,37
2023-03-10T12:51:39.678Z,37
2023-03-10T12:53:12.725Z,37
2023-03-10T12:54:14.113Z,37
2023-03-10T12:55:15.519Z,37
2023-03-10T12:56:16.893Z,37
2023-03-10T12:57:22.517Z,36
2023-03-10T12:58:23.877Z,36
2023-03-10T12:59:25.291Z,36
2023-03-10T13:00:26.652Z,36
2023-03-10T13:01:28.021Z,37
2023-03-10T13:02:29.364Z,37
2023-03-10T13:03:30.777Z,37
2023-03-10T13:04:52.701Z,37
2023-03-10T13:05:54.101Z,37
2023-03-10T13:06:55.482Z,37
2023-03-10T13:07:56.793Z,37
2023-03-10T13:08:58.138Z,37
2023-03-10T13:09:59.504Z,37
2023-03-10T13:11:00.909Z,37
2023-03-10T13:12:02.268Z,37
2023-03-10T13:13:13.173Z,37
2023-03-10T13:14:14.558Z,36
2023-03-10T13:15:15.906Z,36
2023-03-10T13:16:18.025Z,36
2023-03-10T13:17:19.455Z,36
2023-03-10T13:18:20.810Z,36
2023-03-10T13:19:52.824Z,35
2023-03-10T13:20:54.171Z,35
2023-03-10T13:21:55.591Z,35
2023-03-10T13:22:56.938Z,35
2023-03-10T13:23:58.325Z,35
2023-03-10T13:24:59.680Z,35
2023-03-10T13:27:25.085Z,36
2023-03-10T13:28:26.711Z,36
2023-03-10T13:29:28.084Z,36
2023-03-10T13:30:43.129Z,36
2023-03-10T13:31:44.529Z,36
2023-03-10T13:32:46.002Z,73
2023-03-10T13:33:53.155Z,36
2023-03-10T13:34:54.840Z,36
2023-03-10T13:35:56.286Z,36
2023-03-10T13:36:57.641Z,36
2023-03-10T13:37:59.058Z,36
2023-03-10T13:39:00.454Z,36
2023-03-10T13:40:01.851Z,36
2023-03-10T13:41:03.268Z,36
2023-03-10T13:42:04.625Z,36
2023-03-10T13:43:06.001Z,35
2023-03-10T13:44:07.784Z,35
2023-03-10T13:45:09.148Z,35
2023-03-10T13:46:10.596Z,35
2023-03-10T13:47:12.008Z,35
2023-03-10T13:48:13.460Z,35
2023-03-10T13:49:14.838Z,35
2023-03-10T13:50:16.187Z,36
2023-03-10T13:51:17.539Z,36
2023-03-10T13:52:18.901Z,36
2023-03-10T13:53:20.298Z,36
2023-03-10T13:54:21.655Z,36
2023-03-10T13:55:42.671Z,36
2023-03-10T13:56:44.031Z,36
2023-03-10T13:57:45.455Z,36
2023-03-10T13:58:46.879Z,36
2023-03-10T13:59:48.230Z,36
2023-03-10T14:00:49.583Z,36
2023-03-10T14:01:50.944Z,36
2023-03-10T14:02:52.343Z,36
2023-03-10T14:03:53.839Z,36
2023-03-10T14:04:55.266Z,36
2023-03-10T14:05:56.611Z,37
2023-03-10T14:06:57.959Z,36
2023-03-10T14:07:59.329Z,36
2023-03-10T14:09:02.646Z,37
2023-03-10T14:10:43.112Z,37
2023-03-10T14:11:44.458Z,36
2023-03-10T14:12:45.814Z,37
2023-03-10T14:13:47.182Z,36
2023-03-10T14:14:52.776Z,36
2023-03-10T14:16:32.655Z,36
2023-03-10T14:17:34.035Z,36
2023-03-10T14:18:35.416Z,36
2023-03-10T14:19:36.770Z,36
2023-03-10T14:21:32.799Z,36
2023-03-10T14:22:34.168Z,36
2023-03-10T14:23:35.559Z,36
2023-03-10T14:24:36.936Z,36
2023-03-10T14:25:38.310Z,36
2023-03-10T14:26:39.673Z,36
2023-03-10T14:27:42.172Z,36
2023-03-10T14:29:02.602Z,36
2023-03-10T14:30:03.984Z,36
2023-03-10T14:31:05.364Z,36
2023-03-10T14:32:06.743Z,36
2023-03-10T14:33:08.084Z,36
2023-03-10T14:34:09.479Z,36
2023-03-10T14:35:10.817Z,36
2023-03-10T14:36:12.352Z,36
2023-03-10T14:37:13.760Z,36
2023-03-10T14:38:15.114Z,36
2023-03-10T14:39:16.498Z,36
2023-03-10T14:40:43.018Z,36
2023-03-10T14:41:44.378Z,36
2023-03-10T14:42:45.749Z,36
2023-03-10T14:43:47.097Z,36
2023-03-10T14:44:48.461Z,36
2023-03-10T14:45:50.386Z,37
2023-03-10T14:46:52.197Z,37
2023-03-10T14:47:53.860Z,36
2023-03-10T14:48:55.479Z,37
2023-03-10T14:49:56.866Z,37
2023-03-10T14:51:35.761Z,36
2023-03-10T14:52:37.787Z,36
2023-03-10T14:53:39.200Z,36
2023-03-10T14:54:40.550Z,37
2023-03-10T14:55:42.623Z,37
2023-03-10T14:57:22.721Z,37
2023-03-10T14:58:24.087Z,37
2023-03-10T14:59:25.450Z,37
2023-03-10T15:00:26.798Z,37
2023-03-10T15:01:28.195Z,37
2023-03-10T15:02:29.627Z,37
2023-03-10T15:04:52.723Z,37
2023-03-10T15:05:54.327Z,37
2023-03-10T15:06:55.746Z,37
2023-03-10T15:07:57.128Z,38
2023-03-10T15:08:58.520Z,38
2023-03-10T15:10:10.465Z,38
2023-03-10T15:11:12.171Z,37
2023-03-10T15:12:13.536Z,37
2023-03-10T15:13:14.891Z,38
2023-03-10T15:14:16.302Z,38
2023-03-10T15:15:17.651Z,38
2023-03-10T15:16:19.088Z,38
2023-03-10T15:17:20.568Z,38
2023-03-10T15:18:21.947Z,38
2023-03-10T15:19:23.298Z,38
2023-03-10T15:20:24.705Z,38
2023-03-10T15:21:26.072Z,38
2023-03-10T15:22:27.452Z,38
2023-03-10T15:23:28.842Z,38
2023-03-10T15:24:30.217Z,38
2023-03-10T15:25:45.336Z,38
2023-03-10T15:26:47.243Z,38
2023-03-10T15:27:48.666Z,38
2023-03-10T15:28:50.040Z,38
2023-03-10T15:29:51.394Z,38
2023-03-10T15:30:52.869Z,38
2023-03-10T15:31:54.233Z,38
2023-03-10T15:32:55.790Z,38
2023-03-10T15:33:57.219Z,38
2023-03-10T15:34:58.584Z,38
2023-03-10T15:36:00.004Z,39
2023-03-10T15:37:01.393Z,39
2023-03-10T15:38:13.212Z,39
2023-03-10T15:39:25.476Z,39
2023-03-10T15:40:42.741Z,39
2023-03-10T15:41:44.102Z,39
2023-03-10T15:42:45.456Z,39
2023-03-10T15:43:46.849Z,39